Hohebank — V2CX3 — position and weather

sailwx.info

Track history (hours):
 
Tides and Currents Weather Stations Pressure Air Temp Water Temp Dewpoint Dewpoint Depression Visibility Wind Speed Wind Dir Waves Ship Positions

Hohebank

Last reported at 2017-Nov-23 03:57 UTC. Time now 2017-Nov-23 22:20 UTC.
Position N 11°07' W 074°51'.

Length 139 m; draft 7.9 m.

Type: Ship (hazmat cat B). MMSI: 305134000.

Date/timePositionNaut miles runAvg speedWind from/ knotsBaromVisibWave heightAir tempDewpointWater temp
2017-Nov-23 03:57N 11°07' W 074°51'511.8
2017-Nov-23 03:30N 11°02' W 074°49'5 9.6
2017-Nov-23 03:00N 10°59' W 074°45'1 1.3
2017-Nov-23 02:28N 10°58' W 074°46'0 0.0
2017-Nov-23 01:55N 10°58' W 074°46'0 0.0
2017-Nov-23 01:28N 10°58' W 074°46'0 0.0
2017-Nov-23 00:58N 10°58' W 074°46'0 0.0
2017-Nov-23 00:28N 10°58' W 074°46'0 0.0
2017-Nov-22 23:58N 10°58' W 074°46'0 0.0
2017-Nov-22 23:27N 10°58' W 074°46'0 0.0
2017-Nov-22 22:58N 10°58' W 074°46'0 0.0
2017-Nov-22 22:27N 10°58' W 074°46'0 0.0
2017-Nov-22 22:00N 10°58' W 074°46'1 1.7
2017-Nov-22 21:30N 10°59' W 074°45'510.3
2017-Nov-22 21:00N 11°03' W 074°49'5 9.3
2017-Nov-22 20:30N 11°07' W 074°51'510.0
2017-Nov-22 19:58N 11°12' W 074°52'712.9
2017-Nov-22 19:27N 11°18' W 074°51'  
2017-Nov-18 11:55N 25°29' W 079°37'615.5
2017-Nov-18 11:30N 25°35' W 079°39'815.4
2017-Nov-18 11:00N 25°42' W 079°41'714.8
2017-Nov-18 10:30N 25°48' W 079°46'714.9
2017-Nov-18 10:00N 25°53' W 079°52'510.5
2017-Nov-18 09:30N 25°57' W 079°56'4 7.9
2017-Nov-18 09:00N 25°60' W 079°59'510.1
2017-Nov-18 08:30N 26°04' W 080°03'4 8.7
2017-Nov-18 08:00N 26°06' W 080°07'0 0.5
2017-Nov-18 07:29N 26°05' W 080°07'0 0.0
2017-Nov-18 06:59N 26°05' W 080°07'0 0.0
2017-Nov-18 06:29N 26°05' W 080°07'0 0.0
2017-Nov-18 05:59N 26°05' W 080°07'0 0.0
2017-Nov-18 05:20N 26°05' W 080°07'0 0.0
2017-Nov-18 04:59N 26°05' W 080°07'0 0.0
2017-Nov-18 04:20N 26°05' W 080°07'0 0.0
2017-Nov-18 03:50N 26°05' W 080°07'0 0.0
2017-Nov-18 03:26N 26°05' W 080°07'0 0.0
2017-Nov-18 02:56N 26°05' W 080°07'0 0.0
2017-Nov-18 02:26N 26°05' W 080°07'0 0.0
2017-Nov-18 01:56N 26°05' W 080°07'0 0.0
2017-Nov-18 01:26N 26°05' W 080°07'0 0.0
2017-Nov-18 00:56N 26°05' W 080°07'0 0.0
2017-Nov-18 00:26N 26°05' W 080°07'0 0.0
2017-Nov-17 23:56N 26°05' W 080°07'0 0.0
2017-Nov-17 23:26N 26°05' W 080°07'0 0.0
2017-Nov-17 22:56N 26°05' W 080°07'0 0.0
2017-Nov-17 22:23N 26°05' W 080°07'0 0.3
2017-Nov-17 21:59N 26°05' W 080°07'0 0.0
2017-Nov-17 21:29N 26°05' W 080°07'0 0.0
2017-Nov-17 20:59N 26°05' W 080°07'0 0.0
2017-Nov-17 20:29N 26°05' W 080°07'0 0.0
2017-Nov-17 19:59N 26°05' W 080°07'0 0.0
2017-Nov-17 19:30N 26°05' W 080°07'0 0.0
2017-Nov-17 18:53N 26°05' W 080°07'0 0.0
2017-Nov-17 18:23N 26°05' W 080°07'0 0.0
2017-Nov-17 17:53N 26°05' W 080°07'0 0.0
2017-Nov-17 17:23N 26°05' W 080°07'0 0.0
2017-Nov-17 16:53N 26°05' W 080°07'0 0.0
2017-Nov-17 16:19N 26°05' W 080°07'0 0.0
2017-Nov-17 15:53N 26°05' W 080°07'0 0.0
2017-Nov-17 15:23N 26°05' W 080°07'0 0.0
2017-Nov-17 14:59N 26°05' W 080°07'0 0.0
2017-Nov-17 14:29N 26°05' W 080°07'0 0.0
2017-Nov-17 13:59N 26°05' W 080°07'0 0.0
2017-Nov-17 13:29N 26°05' W 080°07'0 0.0
2017-Nov-17 12:59N 26°05' W 080°07'0 0.0
2017-Nov-17 12:29N 26°05' W 080°07'0 0.0
2017-Nov-17 11:59N 26°05' W 080°07'0 0.0
2017-Nov-17 11:29N 26°05' W 080°07'0 0.0
2017-Nov-17 10:59N 26°05' W 080°07'0 0.0
2017-Nov-17 10:25N 26°05' W 080°07'0 0.0
2017-Nov-17 09:59N 26°05' W 080°07'0 0.0
2017-Nov-17 09:29N 26°05' W 080°07'0 0.0
2017-Nov-17 08:59N 26°05' W 080°07'0 0.0
2017-Nov-17 08:29N 26°05' W 080°07'0 0.3
2017-Nov-17 08:00N 26°05' W 080°07'0 0.0
2017-Nov-17 07:30N 26°05' W 080°07'0 0.0
2017-Nov-17 07:00N 26°05' W 080°07'0 0.0
2017-Nov-17 06:30N 26°05' W 080°07'0 0.0
2017-Nov-17 06:00N 26°05' W 080°07'0 0.0
2017-Nov-17 05:30N 26°05' W 080°07'0 0.0
2017-Nov-17 05:00N 26°05' W 080°07'0 0.0
2017-Nov-17 04:30N 26°05' W 080°07'0 0.0
2017-Nov-17 04:00N 26°05' W 080°07'0 0.0
2017-Nov-17 03:30N 26°05' W 080°07'0 0.0
2017-Nov-17 03:00N 26°05' W 080°07'0 0.0
2017-Nov-17 02:30N 26°05' W 080°07'0 0.0
2017-Nov-17 02:00N 26°05' W 080°07'0 0.0
2017-Nov-17 01:30N 26°05' W 080°07'0 0.0
2017-Nov-17 01:00N 26°05' W 080°07'0 0.0
2017-Nov-17 00:30N 26°05' W 080°07'0 0.0
2017-Nov-17 00:00N 26°05' W 080°07'0 0.0
2017-Nov-16 23:30N 26°05' W 080°07'0 0.0
2017-Nov-16 23:00N 26°05' W 080°07'0 0.0
2017-Nov-16 22:30N 26°05' W 080°07'0 0.0
2017-Nov-16 22:00N 26°05' W 080°07'0 0.0
2017-Nov-16 21:30N 26°05' W 080°07'0 0.0
2017-Nov-16 21:00N 26°05' W 080°07'0 0.0
2017-Nov-16 20:30N 26°05' W 080°07'0 0.0
2017-Nov-16 20:00N 26°05' W 080°07'0 0.0
2017-Nov-16 19:30N 26°05' W 080°07'0 0.0
2017-Nov-16 19:00N 26°05' W 080°07'0 0.0
2017-Nov-16 18:30N 26°05' W 080°07'0 0.0
2017-Nov-16 18:00N 26°05' W 080°07'0 0.0
2017-Nov-16 17:30N 26°05' W 080°07'0 0.0
2017-Nov-16 17:00N 26°05' W 080°07'0 0.5
2017-Nov-16 16:30N 26°06' W 080°07'510.0
2017-Nov-16 16:00N 26°05' W 080°02'816.7
2017-Nov-16 15:30N 25°60' W 079°54'917.5
2017-Nov-16 15:00N 25°54' W 079°47'816.2
2017-Nov-16 14:30N 25°48' W 079°41'917.4
2017-Nov-16 14:00N 25°39' W 079°40'30315.9
2017-Nov-15 18:59N 21°37' W 076°22'  
Track history (hours):
 
Tides and Currents Weather Stations Pressure Air Temp Water Temp Dewpoint Dewpoint Depression Visibility Wind Speed Wind Dir Waves Ship Positions

Hohebank

Last reported at 2017-Nov-23 03:57 UTC. Time now 2017-Nov-23 22:20 UTC.
Position N 11°07' W 074°51'.

Length 139 m; draft 7.9 m.

Type: Ship (hazmat cat B). MMSI: 305134000.

Date/timePositionNaut miles runAvg speedWind from/ knotsBaromVisibWave heightAir tempDewpointWater temp
2017-Nov-23 03:57N 11°07' W 074°51'511.8
2017-Nov-23 03:30N 11°02' W 074°49'5 9.6
2017-Nov-23 03:00N 10°59' W 074°45'1 1.3
2017-Nov-23 02:28N 10°58' W 074°46'0 0.0
2017-Nov-23 01:55N 10°58' W 074°46'0 0.0
2017-Nov-23 01:28N 10°58' W 074°46'0 0.0
2017-Nov-23 00:58N 10°58' W 074°46'0 0.0
2017-Nov-23 00:28N 10°58' W 074°46'0 0.0
2017-Nov-22 23:58N 10°58' W 074°46'0 0.0
2017-Nov-22 23:27N 10°58' W 074°46'0 0.0
2017-Nov-22 22:58N 10°58' W 074°46'0 0.0
2017-Nov-22 22:27N 10°58' W 074°46'0 0.0
2017-Nov-22 22:00N 10°58' W 074°46'1 1.7
2017-Nov-22 21:30N 10°59' W 074°45'510.3
2017-Nov-22 21:00N 11°03' W 074°49'5 9.3
2017-Nov-22 20:30N 11°07' W 074°51'510.0
2017-Nov-22 19:58N 11°12' W 074°52'712.9
2017-Nov-22 19:27N 11°18' W 074°51'  
2017-Nov-18 11:55N 25°29' W 079°37'615.5
2017-Nov-18 11:30N 25°35' W 079°39'815.4
2017-Nov-18 11:00N 25°42' W 079°41'714.8
2017-Nov-18 10:30N 25°48' W 079°46'714.9
2017-Nov-18 10:00N 25°53' W 079°52'510.5
2017-Nov-18 09:30N 25°57' W 079°56'4 7.9
2017-Nov-18 09:00N 25°60' W 079°59'510.1
2017-Nov-18 08:30N 26°04' W 080°03'4 8.7
2017-Nov-18 08:00N 26°06' W 080°07'0 0.5
2017-Nov-18 07:29N 26°05' W 080°07'0 0.0
2017-Nov-18 06:59N 26°05' W 080°07'0 0.0
2017-Nov-18 06:29N 26°05' W 080°07'0 0.0
2017-Nov-18 05:59N 26°05' W 080°07'0 0.0
2017-Nov-18 05:20N 26°05' W 080°07'0 0.0
2017-Nov-18 04:59N 26°05' W 080°07'0 0.0
2017-Nov-18 04:20N 26°05' W 080°07'0 0.0
2017-Nov-18 03:50N 26°05' W 080°07'0 0.0
2017-Nov-18 03:26N 26°05' W 080°07'0 0.0
2017-Nov-18 02:56N 26°05' W 080°07'0 0.0
2017-Nov-18 02:26N 26°05' W 080°07'0 0.0
2017-Nov-18 01:56N 26°05' W 080°07'0 0.0
2017-Nov-18 01:26N 26°05' W 080°07'0 0.0
2017-Nov-18 00:56N 26°05' W 080°07'0 0.0
2017-Nov-18 00:26N 26°05' W 080°07'0 0.0
2017-Nov-17 23:56N 26°05' W 080°07'0 0.0
2017-Nov-17 23:26N 26°05' W 080°07'0 0.0
2017-Nov-17 22:56N 26°05' W 080°07'0 0.0
2017-Nov-17 22:23N 26°05' W 080°07'0 0.3
2017-Nov-17 21:59N 26°05' W 080°07'0 0.0
2017-Nov-17 21:29N 26°05' W 080°07'0 0.0
2017-Nov-17 20:59N 26°05' W 080°07'0 0.0
2017-Nov-17 20:29N 26°05' W 080°07'0 0.0
2017-Nov-17 19:59N 26°05' W 080°07'0 0.0
2017-Nov-17 19:30N 26°05' W 080°07'0 0.0
2017-Nov-17 18:53N 26°05' W 080°07'0 0.0
2017-Nov-17 18:23N 26°05' W 080°07'0 0.0
2017-Nov-17 17:53N 26°05' W 080°07'0 0.0
2017-Nov-17 17:23N 26°05' W 080°07'0 0.0
2017-Nov-17 16:53N 26°05' W 080°07'0 0.0
2017-Nov-17 16:19N 26°05' W 080°07'0 0.0
2017-Nov-17 15:53N 26°05' W 080°07'0 0.0
2017-Nov-17 15:23N 26°05' W 080°07'0 0.0
2017-Nov-17 14:59N 26°05' W 080°07'0 0.0
2017-Nov-17 14:29N 26°05' W 080°07'0 0.0
2017-Nov-17 13:59N 26°05' W 080°07'0 0.0
2017-Nov-17 13:29N 26°05' W 080°07'0 0.0
2017-Nov-17 12:59N 26°05' W 080°07'0 0.0
2017-Nov-17 12:29N 26°05' W 080°07'0 0.0
2017-Nov-17 11:59N 26°05' W 080°07'0 0.0
2017-Nov-17 11:29N 26°05' W 080°07'0 0.0
2017-Nov-17 10:59N 26°05' W 080°07'0 0.0
2017-Nov-17 10:25N 26°05' W 080°07'0 0.0
2017-Nov-17 09:59N 26°05' W 080°07'0 0.0
2017-Nov-17 09:29N 26°05' W 080°07'0 0.0
2017-Nov-17 08:59N 26°05' W 080°07'0 0.0
2017-Nov-17 08:29N 26°05' W 080°07'0 0.3
2017-Nov-17 08:00N 26°05' W 080°07'0 0.0
2017-Nov-17 07:30N 26°05' W 080°07'0 0.0
2017-Nov-17 07:00N 26°05' W 080°07'0 0.0
2017-Nov-17 06:30N 26°05' W 080°07'0 0.0
2017-Nov-17 06:00N 26°05' W 080°07'0 0.0
2017-Nov-17 05:30N 26°05' W 080°07'0 0.0
2017-Nov-17 05:00N 26°05' W 080°07'0 0.0
2017-Nov-17 04:30N 26°05' W 080°07'0 0.0
2017-Nov-17 04:00N 26°05' W 080°07'0 0.0
2017-Nov-17 03:30N 26°05' W 080°07'0 0.0
2017-Nov-17 03:00N 26°05' W 080°07'0 0.0
2017-Nov-17 02:30N 26°05' W 080°07'0 0.0
2017-Nov-17 02:00N 26°05' W 080°07'0 0.0
2017-Nov-17 01:30N 26°05' W 080°07'0 0.0
2017-Nov-17 01:00N 26°05' W 080°07'0 0.0
2017-Nov-17 00:30N 26°05' W 080°07'0 0.0
2017-Nov-17 00:00N 26°05' W 080°07'0 0.0
2017-Nov-16 23:30N 26°05' W 080°07'0 0.0
2017-Nov-16 23:00N 26°05' W 080°07'0 0.0
2017-Nov-16 22:30N 26°05' W 080°07'0 0.0
2017-Nov-16 22:00N 26°05' W 080°07'0 0.0
2017-Nov-16 21:30N 26°05' W 080°07'0 0.0
2017-Nov-16 21:00N 26°05' W 080°07'0 0.0
2017-Nov-16 20:30N 26°05' W 080°07'0 0.0
2017-Nov-16 20:00N 26°05' W 080°07'0 0.0
2017-Nov-16 19:30N 26°05' W 080°07'0 0.0
2017-Nov-16 19:00N 26°05' W 080°07'0 0.0
2017-Nov-16 18:30N 26°05' W 080°07'0 0.0
2017-Nov-16 18:00N 26°05' W 080°07'0 0.0
2017-Nov-16 17:30N 26°05' W 080°07'0 0.0
2017-Nov-16 17:00N 26°05' W 080°07'0 0.5
2017-Nov-16 16:30N 26°06' W 080°07'510.0
2017-Nov-16 16:00N 26°05' W 080°02'816.7
2017-Nov-16 15:30N 25°60' W 079°54'917.5
2017-Nov-16 15:00N 25°54' W 079°47'816.2
2017-Nov-16 14:30N 25°48' W 079°41'917.4
2017-Nov-16 14:00N 25°39' W 079°40'30315.9
2017-Nov-15 18:59N 21°37' W 076°22'  

Dump ship's entire track history